Terminal Aerodrome Forecast
Issued by NWS Pocatello, ID

Home | Current Version | Previous Version | Text Only | Print | Product List | Glossary On
Versions: 1 2 3 4 5 6 7 8 9 10 11 12 13 14 15 16 17 18 19 20 21 22 23 24 25 26 27 28
000
FTUS45 KPIH 251051 AAD
TAFIDA
TAF AMD
KIDA 251051Z 2511/2606 22016KT P6SM BKN027 BKN070
      TEMPO 2511/2513 BKN008 OVC025
     FM251500 22025G35KT P6SM BKN025 BKN060
     FM260000 21020G30KT P6SM SCT025 BKN040
     FM260500 20015G25KT P6SM VCSH BKN025 OVC035=

USA.gov is the U.S. government's official web portal to all federal, state and local government web resources and services.